sensor_id;sensor_type;location;lat;lon;timestamp;temperature;humidity
17587;DHT22;8912;52.336;17.172;2022-12-07T00:02:04;2.40;99.90
17587;DHT22;8912;52.336;17.172;2022-12-07T00:04:33;2.50;99.90
17587;DHT22;8912;52.336;17.172;2022-12-07T00:07:02;2.50;99.90
17587;DHT22;8912;52.336;17.172;2022-12-07T00:09:31;2.50;99.90
17587;DHT22;8912;52.336;17.172;2022-12-07T00:12:00;2.50;99.90
17587;DHT22;8912;52.336;17.172;2022-12-07T00:14:42;2.60;99.90
17587;DHT22;8912;52.336;17.172;2022-12-07T00:17:11;2.50;99.90
17587;DHT22;8912;52.336;17.172;2022-12-07T00:19:39;2.50;99.90
17587;DHT22;8912;52.336;17.172;2022-12-07T00:22:08;2.50;99.90
17587;DHT22;8912;52.336;17.172;2022-12-07T00:24:37;2.50;99.90
17587;DHT22;8912;52.336;17.172;2022-12-07T00:27:06;2.50;99.90
17587;DHT22;8912;52.336;17.172;2022-12-07T00:29:34;2.50;99.90
17587;DHT22;8912;52.336;17.172;2022-12-07T00:32:05;2.50;99.90
17587;DHT22;8912;52.336;17.172;2022-12-07T00:34:34;2.60;99.90
17587;DHT22;8912;52.336;17.172;2022-12-07T00:37:03;2.50;99.90
17587;DHT22;8912;52.336;17.172;2022-12-07T00:39:32;2.60;99.90
17587;DHT22;8912;52.336;17.172;2022-12-07T00:42:00;2.60;99.90
17587;DHT22;8912;52.336;17.172;2022-12-07T00:44:29;2.60;99.90
17587;DHT22;8912;52.336;17.172;2022-12-07T00:46:58;2.60;99.90
17587;DHT22;8912;52.336;17.172;2022-12-07T00:49:28;2.60;99.90
17587;DHT22;8912;52.336;17.172;2022-12-07T00:51:57;2.60;99.90
17587;DHT22;8912;52.336;17.172;2022-12-07T00:54:26;2.60;99.90
17587;DHT22;8912;52.336;17.172;2022-12-07T00:56:55;2.60;99.90
17587;DHT22;8912;52.336;17.172;2022-12-07T00:59:23;2.60;99.90
17587;DHT22;8912;52.336;17.172;2022-12-07T01:01:52;2.60;99.90
17587;DHT22;8912;52.336;17.172;2022-12-07T01:04:21;2.60;99.90
17587;DHT22;8912;52.336;17.172;2022-12-07T01:06:51;2.60;99.90
17587;DHT22;8912;52.336;17.172;2022-12-07T01:09:20;2.60;99.90
17587;DHT22;8912;52.336;17.172;2022-12-07T01:11:49;2.60;99.90
17587;DHT22;8912;52.336;17.172;2022-12-07T01:14:18;2.60;99.90
17587;DHT22;8912;52.336;17.172;2022-12-07T01:16:46;2.70;99.90
17587;DHT22;8912;52.336;17.172;2022-12-07T01:19:15;2.70;99.90
17587;DHT22;8912;52.336;17.172;2022-12-07T01:21:44;2.60;99.90
17587;DHT22;8912;52.336;17.172;2022-12-07T01:24:15;2.70;99.90
17587;DHT22;8912;52.336;17.172;2022-12-07T01:26:44;2.60;99.90
17587;DHT22;8912;52.336;17.172;2022-12-07T01:29:12;2.70;99.90
17587;DHT22;8912;52.336;17.172;2022-12-07T01:31:41;2.70;99.90
17587;DHT22;8912;52.336;17.172;2022-12-07T01:34:10;2.70;99.90
17587;DHT22;8912;52.336;17.172;2022-12-07T01:36:38;2.70;99.90
17587;DHT22;8912;52.336;17.172;2022-12-07T01:39:09;2.70;99.90
17587;DHT22;8912;52.336;17.172;2022-12-07T01:41:41;2.70;99.90
17587;DHT22;8912;52.336;17.172;2022-12-07T01:44:15;2.70;99.90
17587;DHT22;8912;52.336;17.172;2022-12-07T01:46:45;2.70;99.90
17587;DHT22;8912;52.336;17.172;2022-12-07T01:49:26;2.70;99.90
17587;DHT22;8912;52.336;17.172;2022-12-07T01:52:01;2.80;99.90
17587;DHT22;8912;52.336;17.172;2022-12-07T01:54:31;2.80;99.90
17587;DHT22;8912;52.336;17.172;2022-12-07T01:57:03;2.70;99.90
17587;DHT22;8912;52.336;17.172;2022-12-07T01:59:33;2.80;99.90
17587;DHT22;8912;52.336;17.172;2022-12-07T02:02:05;2.80;99.90
17587;DHT22;8912;52.336;17.172;2022-12-07T02:04:36;2.90;99.90
17587;DHT22;8912;52.336;17.172;2022-12-07T02:07:05;2.90;99.90
17587;DHT22;8912;52.336;17.172;2022-12-07T02:09:34;2.80;99.90
17587;DHT22;8912;52.336;17.172;2022-12-07T02:12:05;2.90;99.90
17587;DHT22;8912;52.336;17.172;2022-12-07T02:14:34;2.90;99.90
17587;DHT22;8912;52.336;17.172;2022-12-07T02:17:09;2.90;99.90
17587;DHT22;8912;52.336;17.172;2022-12-07T02:20:17;2.90;99.90
17587;DHT22;8912;52.336;17.172;2022-12-07T02:26:38;2.90;99.90
17587;DHT22;8912;52.336;17.172;2022-12-07T02:29:17;3.00;99.90
17587;DHT22;8912;52.336;17.172;2022-12-07T02:31:56;3.00;99.90
17587;DHT22;8912;52.336;17.172;2022-12-07T02:34:37;3.00;99.90
17587;DHT22;8912;52.336;17.172;2022-12-07T02:37:18;3.00;99.90
17587;DHT22;8912;52.336;17.172;2022-12-07T02:39:53;3.00;99.90
17587;DHT22;8912;52.336;17.172;2022-12-07T02:42:27;3.00;99.90
17587;DHT22;8912;52.336;17.172;2022-12-07T02:44:59;3.00;99.90
17587;DHT22;8912;52.336;17.172;2022-12-07T02:47:29;3.00;99.90
17587;DHT22;8912;52.336;17.172;2022-12-07T02:50:02;3.00;99.90
17587;DHT22;8912;52.336;17.172;2022-12-07T02:52:32;3.00;99.90
17587;DHT22;8912;52.336;17.172;2022-12-07T02:55:01;3.00;99.90
17587;DHT22;8912;52.336;17.172;2022-12-07T02:57:41;3.10;99.90
17587;DHT22;8912;52.336;17.172;2022-12-07T03:00:18;3.10;99.90
17587;DHT22;8912;52.336;17.172;2022-12-07T03:02:54;3.00;99.90
17587;DHT22;8912;52.336;17.172;2022-12-07T03:05:37;3.20;99.90
17587;DHT22;8912;52.336;17.172;2022-12-07T03:08:15;3.00;99.90
17587;DHT22;8912;52.336;17.172;2022-12-07T03:10:54;3.00;99.90
17587;DHT22;8912;52.336;17.172;2022-12-07T03:13:29;3.00;99.90
17587;DHT22;8912;52.336;17.172;2022-12-07T03:16:07;3.00;99.90
17587;DHT22;8912;52.336;17.172;2022-12-07T03:18:39;3.00;99.90
17587;DHT22;8912;52.336;17.172;2022-12-07T03:21:17;3.00;99.90
17587;DHT22;8912;52.336;17.172;2022-12-07T03:23:51;3.00;99.90
17587;DHT22;8912;52.336;17.172;2022-12-07T03:26:23;3.00;99.90
17587;DHT22;8912;52.336;17.172;2022-12-07T03:28:55;3.00;99.90
17587;DHT22;8912;52.336;17.172;2022-12-07T03:31:32;3.00;99.90
17587;DHT22;8912;52.336;17.172;2022-12-07T03:34:06;3.00;99.90
17587;DHT22;8912;52.336;17.172;2022-12-07T03:36:40;3.00;99.90
17587;DHT22;8912;52.336;17.172;2022-12-07T03:39:16;3.00;99.90
17587;DHT22;8912;52.336;17.172;2022-12-07T03:41:46;3.00;99.90
17587;DHT22;8912;52.336;17.172;2022-12-07T03:44:18;3.00;99.90
17587;DHT22;8912;52.336;17.172;2022-12-07T03:46:57;3.00;99.90
17587;DHT22;8912;52.336;17.172;2022-12-07T03:49:36;3.00;99.90
17587;DHT22;8912;52.336;17.172;2022-12-07T03:52:11;3.00;99.90
17587;DHT22;8912;52.336;17.172;2022-12-07T03:54:44;3.00;99.90
17587;DHT22;8912;52.336;17.172;2022-12-07T03:57:16;3.10;99.90
17587;DHT22;8912;52.336;17.172;2022-12-07T03:59:46;2.90;99.90
17587;DHT22;8912;52.336;17.172;2022-12-07T04:02:16;2.90;99.90
17587;DHT22;8912;52.336;17.172;2022-12-07T04:04:45;2.90;99.90
17587;DHT22;8912;52.336;17.172;2022-12-07T04:07:15;2.90;99.90
17587;DHT22;8912;52.336;17.172;2022-12-07T04:09:43;2.90;99.90
17587;DHT22;8912;52.336;17.172;2022-12-07T04:12:13;2.90;99.90
17587;DHT22;8912;52.336;17.172;2022-12-07T04:14:42;2.90;99.90
17587;DHT22;8912;52.336;17.172;2022-12-07T04:17:11;2.90;99.90
17587;DHT22;8912;52.336;17.172;2022-12-07T04:19:42;2.90;99.90
17587;DHT22;8912;52.336;17.172;2022-12-07T04:22:10;3.20;99.90
17587;DHT22;8912;52.336;17.172;2022-12-07T04:24:39;2.90;99.90
17587;DHT22;8912;52.336;17.172;2022-12-07T04:27:08;2.90;99.90
17587;DHT22;8912;52.336;17.172;2022-12-07T04:29:36;2.90;99.90
17587;DHT22;8912;52.336;17.172;2022-12-07T04:32:07;2.80;99.90
17587;DHT22;8912;52.336;17.172;2022-12-07T04:34:35;2.80;99.90
17587;DHT22;8912;52.336;17.172;2022-12-07T04:37:05;2.80;99.90
17587;DHT22;8912;52.336;17.172;2022-12-07T04:39:34;2.80;99.90
17587;DHT22;8912;52.336;17.172;2022-12-07T04:42:04;2.80;99.90
17587;DHT22;8912;52.336;17.172;2022-12-07T04:44:32;2.80;99.90
17587;DHT22;8912;52.336;17.172;2022-12-07T04:47:01;2.80;99.90
17587;DHT22;8912;52.336;17.172;2022-12-07T04:49:30;2.80;99.90
17587;DHT22;8912;52.336;17.172;2022-12-07T04:51:59;2.80;99.90
17587;DHT22;8912;52.336;17.172;2022-12-07T04:54:29;2.80;99.90
17587;DHT22;8912;52.336;17.172;2022-12-07T04:56:58;2.80;99.90
17587;DHT22;8912;52.336;17.172;2022-12-07T04:59:27;2.80;99.90
17587;DHT22;8912;52.336;17.172;2022-12-07T05:01:56;2.80;99.90
17587;DHT22;8912;52.336;17.172;2022-12-07T05:04:25;2.80;99.90
17587;DHT22;8912;52.336;17.172;2022-12-07T05:06:54;2.80;99.90
17587;DHT22;8912;52.336;17.172;2022-12-07T05:09:23;2.80;99.90
17587;DHT22;8912;52.336;17.172;2022-12-07T05:11:53;2.80;99.90
17587;DHT22;8912;52.336;17.172;2022-12-07T05:14:22;3.30;99.90
17587;DHT22;8912;52.336;17.172;2022-12-07T05:16:51;2.80;99.90
17587;DHT22;8912;52.336;17.172;2022-12-07T05:19:21;2.80;99.90
17587;DHT22;8912;52.336;17.172;2022-12-07T05:21:50;2.80;99.90
17587;DHT22;8912;52.336;17.172;2022-12-07T05:24:18;2.80;99.90
17587;DHT22;8912;52.336;17.172;2022-12-07T05:26:47;2.70;99.90
17587;DHT22;8912;52.336;17.172;2022-12-07T05:29:17;2.80;99.90
17587;DHT22;8912;52.336;17.172;2022-12-07T05:31:46;2.90;99.90
17587;DHT22;8912;52.336;17.172;2022-12-07T05:34:15;2.80;99.90
17587;DHT22;8912;52.336;17.172;2022-12-07T05:36:44;2.80;99.90
17587;DHT22;8912;52.336;17.172;2022-12-07T05:39:13;2.80;99.90
17587;DHT22;8912;52.336;17.172;2022-12-07T05:41:42;2.80;99.90
17587;DHT22;8912;52.336;17.172;2022-12-07T05:44:43;2.80;99.90
17587;DHT22;8912;52.336;17.172;2022-12-07T05:47:12;2.80;99.90
17587;DHT22;8912;52.336;17.172;2022-12-07T05:49:41;2.80;99.90
17587;DHT22;8912;52.336;17.172;2022-12-07T05:52:10;2.80;99.90
17587;DHT22;8912;52.336;17.172;2022-12-07T05:54:39;2.80;99.90
17587;DHT22;8912;52.336;17.172;2022-12-07T05:57:10;2.70;99.90
17587;DHT22;8912;52.336;17.172;2022-12-07T05:59:39;2.70;99.90
17587;DHT22;8912;52.336;17.172;2022-12-07T06:02:09;2.70;99.90
17587;DHT22;8912;52.336;17.172;2022-12-07T06:04:40;2.80;99.90
17587;DHT22;8912;52.336;17.172;2022-12-07T06:07:10;2.80;99.90
17587;DHT22;8912;52.336;17.172;2022-12-07T06:09:39;2.80;99.90
17587;DHT22;8912;52.336;17.172;2022-12-07T06:12:10;2.80;99.90
17587;DHT22;8912;52.336;17.172;2022-12-07T06:14:56;2.80;99.90
17587;DHT22;8912;52.336;17.172;2022-12-07T06:17:26;2.80;99.90
17587;DHT22;8912;52.336;17.172;2022-12-07T06:19:55;2.70;99.90
17587;DHT22;8912;52.336;17.172;2022-12-07T06:22:24;2.80;99.90
17587;DHT22;8912;52.336;17.172;2022-12-07T06:24:53;2.80;99.90
17587;DHT22;8912;52.336;17.172;2022-12-07T06:27:21;2.70;99.90
17587;DHT22;8912;52.336;17.172;2022-12-07T06:29:50;2.80;99.90
17587;DHT22;8912;52.336;17.172;2022-12-07T06:32:19;2.70;99.90
17587;DHT22;8912;52.336;17.172;2022-12-07T06:34:50;2.70;99.90
17587;DHT22;8912;52.336;17.172;2022-12-07T06:37:19;2.50;99.90
17587;DHT22;8912;52.336;17.172;2022-12-07T06:39:47;2.30;99.90
17587;DHT22;8912;52.336;17.172;2022-12-07T06:42:16;2.20;99.90
17587;DHT22;8912;52.336;17.172;2022-12-07T06:44:45;2.10;99.90
17587;DHT22;8912;52.336;17.172;2022-12-07T06:47:14;2.50;99.90
17587;DHT22;8912;52.336;17.172;2022-12-07T06:50:05;1.90;99.90
17587;DHT22;8912;52.336;17.172;2022-12-07T06:52:35;1.80;99.90
17587;DHT22;8912;52.336;17.172;2022-12-07T06:55:04;1.80;99.90
17587;DHT22;8912;52.336;17.172;2022-12-07T06:57:33;1.60;99.90
17587;DHT22;8912;52.336;17.172;2022-12-07T07:00:03;1.70;99.90
17587;DHT22;8912;52.336;17.172;2022-12-07T07:02:33;1.70;99.90
17587;DHT22;8912;52.336;17.172;2022-12-07T07:05:01;1.70;99.90
17587;DHT22;8912;52.336;17.172;2022-12-07T07:07:32;1.70;99.90
17587;DHT22;8912;52.336;17.172;2022-12-07T07:10:21;1.80;99.90
17587;DHT22;8912;52.336;17.172;2022-12-07T07:12:53;1.80;99.90
17587;DHT22;8912;52.336;17.172;2022-12-07T07:15:24;1.90;99.90
17587;DHT22;8912;52.336;17.172;2022-12-07T07:17:52;2.00;99.90
17587;DHT22;8912;52.336;17.172;2022-12-07T07:20:21;2.00;99.90
17587;DHT22;8912;52.336;17.172;2022-12-07T07:22:54;1.90;99.90
17587;DHT22;8912;52.336;17.172;2022-12-07T07:25:23;1.90;99.90
17587;DHT22;8912;52.336;17.172;2022-12-07T07:27:52;1.80;99.90
17587;DHT22;8912;52.336;17.172;2022-12-07T07:30:23;1.80;99.90
17587;DHT22;8912;52.336;17.172;2022-12-07T07:32:56;1.80;99.90
17587;DHT22;8912;52.336;17.172;2022-12-07T07:35:26;1.80;99.90
17587;DHT22;8912;52.336;17.172;2022-12-07T07:37:56;1.90;99.90
17587;DHT22;8912;52.336;17.172;2022-12-07T07:40:26;1.90;99.90
17587;DHT22;8912;52.336;17.172;2022-12-07T07:42:56;2.00;99.90
17587;DHT22;8912;52.336;17.172;2022-12-07T07:45:26;2.00;99.90
17587;DHT22;8912;52.336;17.172;2022-12-07T07:47:55;2.00;99.90
17587;DHT22;8912;52.336;17.172;2022-12-07T07:50:24;2.10;99.90
17587;DHT22;8912;52.336;17.172;2022-12-07T07:52:53;2.10;99.90
17587;DHT22;8912;52.336;17.172;2022-12-07T07:55:23;2.20;99.90
17587;DHT22;8912;52.336;17.172;2022-12-07T07:57:53;2.30;99.90
17587;DHT22;8912;52.336;17.172;2022-12-07T08:00:23;2.40;99.90
17587;DHT22;8912;52.336;17.172;2022-12-07T08:02:52;2.40;99.90
17587;DHT22;8912;52.336;17.172;2022-12-07T08:05:21;2.40;99.90
17587;DHT22;8912;52.336;17.172;2022-12-07T08:07:50;2.40;99.90
17587;DHT22;8912;52.336;17.172;2022-12-07T08:10:19;2.40;99.90
17587;DHT22;8912;52.336;17.172;2022-12-07T08:12:50;2.40;99.90
17587;DHT22;8912;52.336;17.172;2022-12-07T08:15:38;2.40;99.90
17587;DHT22;8912;52.336;17.172;2022-12-07T08:18:07;2.40;99.90
17587;DHT22;8912;52.336;17.172;2022-12-07T08:20:37;2.50;99.90
17587;DHT22;8912;52.336;17.172;2022-12-07T08:23:07;2.50;99.90
17587;DHT22;8912;52.336;17.172;2022-12-07T08:25:36;2.40;99.90
17587;DHT22;8912;52.336;17.172;2022-12-07T08:28:07;2.30;99.90
17587;DHT22;8912;52.336;17.172;2022-12-07T08:30:36;2.30;99.90
17587;DHT22;8912;52.336;17.172;2022-12-07T08:33:05;2.30;99.90
17587;DHT22;8912;52.336;17.172;2022-12-07T08:35:34;2.40;99.90
17587;DHT22;8912;52.336;17.172;2022-12-07T08:38:03;2.50;99.90
17587;DHT22;8912;52.336;17.172;2022-12-07T08:40:32;2.50;99.90
17587;DHT22;8912;52.336;17.172;2022-12-07T08:43:01;2.50;99.90
17587;DHT22;8912;52.336;17.172;2022-12-07T08:45:31;2.60;99.90
17587;DHT22;8912;52.336;17.172;2022-12-07T08:48:07;2.60;99.90
17587;DHT22;8912;52.336;17.172;2022-12-07T08:50:37;2.70;99.90
17587;DHT22;8912;52.336;17.172;2022-12-07T08:53:15;2.70;99.90
17587;DHT22;8912;52.336;17.172;2022-12-07T08:55:45;2.70;99.90
17587;DHT22;8912;52.336;17.172;2022-12-07T08:58:15;2.60;99.90
17587;DHT22;8912;52.336;17.172;2022-12-07T09:00:46;2.50;99.90
17587;DHT22;8912;52.336;17.172;2022-12-07T09:03:15;2.60;99.90
17587;DHT22;8912;52.336;17.172;2022-12-07T09:05:44;2.50;99.90
17587;DHT22;8912;52.336;17.172;2022-12-07T09:08:13;2.40;99.90
17587;DHT22;8912;52.336;17.172;2022-12-07T09:10:43;2.30;99.90
17587;DHT22;8912;52.336;17.172;2022-12-07T09:13:13;2.20;99.90
17587;DHT22;8912;52.336;17.172;2022-12-07T09:15:42;2.10;99.90
17587;DHT22;8912;52.336;17.172;2022-12-07T09:18:12;2.10;99.90
17587;DHT22;8912;52.336;17.172;2022-12-07T09:20:41;2.10;99.90
17587;DHT22;8912;52.336;17.172;2022-12-07T09:23:10;2.10;99.90
17587;DHT22;8912;52.336;17.172;2022-12-07T09:25:39;2.10;99.90
17587;DHT22;8912;52.336;17.172;2022-12-07T09:28:07;2.00;99.90
17587;DHT22;8912;52.336;17.172;2022-12-07T09:30:36;1.90;99.90
17587;DHT22;8912;52.336;17.172;2022-12-07T09:33:27;2.00;99.90
17587;DHT22;8912;52.336;17.172;2022-12-07T09:35:56;2.00;99.90
17587;DHT22;8912;52.336;17.172;2022-12-07T09:38:24;2.10;99.90
17587;DHT22;8912;52.336;17.172;2022-12-07T09:40:55;2.10;99.90
17587;DHT22;8912;52.336;17.172;2022-12-07T09:43:25;2.00;99.90
17587;DHT22;8912;52.336;17.172;2022-12-07T09:45:55;2.10;99.90
17587;DHT22;8912;52.336;17.172;2022-12-07T09:48:30;2.00;99.90
17587;DHT22;8912;52.336;17.172;2022-12-07T09:51:00;2.00;99.90
17587;DHT22;8912;52.336;17.172;2022-12-07T09:53:33;2.00;99.90
17587;DHT22;8912;52.336;17.172;2022-12-07T09:56:04;1.90;99.90
17587;DHT22;8912;52.336;17.172;2022-12-07T09:58:33;1.90;99.90
17587;DHT22;8912;52.336;17.172;2022-12-07T10:01:10;1.70;99.90
17587;DHT22;8912;52.336;17.172;2022-12-07T10:03:47;1.80;99.90
17587;DHT22;8912;52.336;17.172;2022-12-07T10:06:17;1.80;99.90
17587;DHT22;8912;52.336;17.172;2022-12-07T10:08:46;1.80;99.90
17587;DHT22;8912;52.336;17.172;2022-12-07T10:11:15;1.90;99.90
17587;DHT22;8912;52.336;17.172;2022-12-07T10:13:46;1.90;99.90
17587;DHT22;8912;52.336;17.172;2022-12-07T10:16:38;1.90;99.90
17587;DHT22;8912;52.336;17.172;2022-12-07T10:19:22;1.90;99.90
17587;DHT22;8912;52.336;17.172;2022-12-07T10:22:04;1.90;99.90
17587;DHT22;8912;52.336;17.172;2022-12-07T10:24:33;1.90;99.90
17587;DHT22;8912;52.336;17.172;2022-12-07T10:27:04;1.90;99.90
17587;DHT22;8912;52.336;17.172;2022-12-07T10:29:36;1.90;99.90
17587;DHT22;8912;52.336;17.172;2022-12-07T10:32:30;1.80;99.90
17587;DHT22;8912;52.336;17.172;2022-12-07T10:35:24;1.90;99.90
17587;DHT22;8912;52.336;17.172;2022-12-07T10:37:55;1.90;99.90
17587;DHT22;8912;52.336;17.172;2022-12-07T10:40:29;1.90;99.90
17587;DHT22;8912;52.336;17.172;2022-12-07T10:43:03;1.90;99.90
17587;DHT22;8912;52.336;17.172;2022-12-07T10:45:35;1.80;99.90
17587;DHT22;8912;52.336;17.172;2022-12-07T10:48:36;1.90;99.90
17587;DHT22;8912;52.336;17.172;2022-12-07T10:51:13;1.80;99.90
17587;DHT22;8912;52.336;17.172;2022-12-07T10:53:54;1.70;99.90
17587;DHT22;8912;52.336;17.172;2022-12-07T10:56:42;1.70;99.90
17587;DHT22;8912;52.336;17.172;2022-12-07T10:59:39;1.70;99.90
17587;DHT22;8912;52.336;17.172;2022-12-07T11:02:24;1.60;99.90
17587;DHT22;8912;52.336;17.172;2022-12-07T11:05:02;1.50;99.90
17587;DHT22;8912;52.336;17.172;2022-12-07T11:07:42;1.50;99.90
17587;DHT22;8912;52.336;17.172;2022-12-07T11:10:23;1.60;99.90
17587;DHT22;8912;52.336;17.172;2022-12-07T11:13:04;1.70;99.90
17587;DHT22;8912;52.336;17.172;2022-12-07T11:15:49;1.80;99.90
17587;DHT22;8912;52.336;17.172;2022-12-07T11:18:26;1.90;99.90
17587;DHT22;8912;52.336;17.172;2022-12-07T11:21:06;1.90;99.90
17587;DHT22;8912;52.336;17.172;2022-12-07T11:23:47;2.00;99.90
17587;DHT22;8912;52.336;17.172;2022-12-07T11:26:25;2.00;99.90
17587;DHT22;8912;52.336;17.172;2022-12-07T11:29:13;2.10;99.90
17587;DHT22;8912;52.336;17.172;2022-12-07T11:31:55;1.20;99.90
17587;DHT22;8912;52.336;17.172;2022-12-07T11:34:36;2.20;99.90
17587;DHT22;8912;52.336;17.172;2022-12-07T11:37:10;2.30;99.90
17587;DHT22;8912;52.336;17.172;2022-12-07T11:39:47;2.20;99.90
17587;DHT22;8912;52.336;17.172;2022-12-07T11:42:22;2.30;99.90
17587;DHT22;8912;52.336;17.172;2022-12-07T11:44:55;2.20;99.90
17587;DHT22;8912;52.336;17.172;2022-12-07T11:47:30;2.10;99.90
17587;DHT22;8912;52.336;17.172;2022-12-07T11:50:10;1.80;99.90
17587;DHT22;8912;52.336;17.172;2022-12-07T11:52:48;1.70;99.90
17587;DHT22;8912;52.336;17.172;2022-12-07T11:55:26;1.80;99.90
17587;DHT22;8912;52.336;17.172;2022-12-07T11:58:00;2.00;99.90
17587;DHT22;8912;52.336;17.172;2022-12-07T12:00:32;2.10;99.90
17587;DHT22;8912;52.336;17.172;2022-12-07T12:03:05;2.20;99.90
17587;DHT22;8912;52.336;17.172;2022-12-07T12:05:39;2.30;99.90
17587;DHT22;8912;52.336;17.172;2022-12-07T12:08:16;2.40;99.90
17587;DHT22;8912;52.336;17.172;2022-12-07T12:11:17;2.40;99.90
17587;DHT22;8912;52.336;17.172;2022-12-07T12:14:08;2.40;99.90
17587;DHT22;8912;52.336;17.172;2022-12-07T12:17:25;2.50;99.90
17587;DHT22;8912;52.336;17.172;2022-12-07T12:20:01;2.50;99.90
17587;DHT22;8912;52.336;17.172;2022-12-07T12:22:35;2.50;99.90
17587;DHT22;8912;52.336;17.172;2022-12-07T12:25:19;2.40;99.90
17587;DHT22;8912;52.336;17.172;2022-12-07T12:27:52;2.40;99.90
17587;DHT22;8912;52.336;17.172;2022-12-07T12:30:29;2.50;99.90
17587;DHT22;8912;52.336;17.172;2022-12-07T12:33:05;2.60;99.90
17587;DHT22;8912;52.336;17.172;2022-12-07T12:35:36;2.70;99.90
17587;DHT22;8912;52.336;17.172;2022-12-07T12:38:27;2.90;99.90
17587;DHT22;8912;52.336;17.172;2022-12-07T12:40:57;2.90;99.90
17587;DHT22;8912;52.336;17.172;2022-12-07T12:46:50;2.90;99.90
17587;DHT22;8912;52.336;17.172;2022-12-07T12:49:33;2.90;99.90
17587;DHT22;8912;52.336;17.172;2022-12-07T12:58:34;2.90;99.90
17587;DHT22;8912;52.336;17.172;2022-12-07T13:01:42;2.90;99.90
17587;DHT22;8912;52.336;17.172;2022-12-07T13:07:13;2.90;99.90
17587;DHT22;8912;52.336;17.172;2022-12-07T13:10:03;2.90;99.90
17587;DHT22;8912;52.336;17.172;2022-12-07T13:12:32;2.90;99.90
17587;DHT22;8912;52.336;17.172;2022-12-07T13:15:01;2.90;99.90
17587;DHT22;8912;52.336;17.172;2022-12-07T13:20:47;3.00;99.90
17587;DHT22;8912;52.336;17.172;2022-12-07T13:23:22;2.90;99.90
17587;DHT22;8912;52.336;17.172;2022-12-07T13:25:58;3.30;99.90
17587;DHT22;8912;52.336;17.172;2022-12-07T13:28:35;2.80;99.90
17587;DHT22;8912;52.336;17.172;2022-12-07T13:31:18;3.00;99.90
17587;DHT22;8912;52.336;17.172;2022-12-07T13:33:48;2.80;99.90
17587;DHT22;8912;52.336;17.172;2022-12-07T13:36:21;2.70;99.90
17587;DHT22;8912;52.336;17.172;2022-12-07T13:38:53;2.70;99.90
17587;DHT22;8912;52.336;17.172;2022-12-07T13:41:23;2.70;99.90
17587;DHT22;8912;52.336;17.172;2022-12-07T13:44:05;2.70;99.90
17587;DHT22;8912;52.336;17.172;2022-12-07T13:46:43;2.80;99.90
17587;DHT22;8912;52.336;17.172;2022-12-07T13:49:23;2.70;99.90
17587;DHT22;8912;52.336;17.172;2022-12-07T13:51:56;2.90;99.90
17587;DHT22;8912;52.336;17.172;2022-12-07T13:54:43;2.70;99.90
17587;DHT22;8912;52.336;17.172;2022-12-07T13:57:12;2.70;99.90
17587;DHT22;8912;52.336;17.172;2022-12-07T13:59:43;2.70;99.90
17587;DHT22;8912;52.336;17.172;2022-12-07T14:02:24;2.70;99.90
17587;DHT22;8912;52.336;17.172;2022-12-07T14:05:09;2.60;99.90
17587;DHT22;8912;52.336;17.172;2022-12-07T14:07:54;2.60;99.90
17587;DHT22;8912;52.336;17.172;2022-12-07T14:10:25;2.50;99.90
17587;DHT22;8912;52.336;17.172;2022-12-07T14:12:55;2.40;99.90
17587;DHT22;8912;52.336;17.172;2022-12-07T14:15:27;2.40;99.90
17587;DHT22;8912;52.336;17.172;2022-12-07T14:17:58;2.50;99.90
17587;DHT22;8912;52.336;17.172;2022-12-07T14:20:32;2.50;99.90
17587;DHT22;8912;52.336;17.172;2022-12-07T14:23:04;2.50;99.90
17587;DHT22;8912;52.336;17.172;2022-12-07T14:25:45;2.50;99.90
17587;DHT22;8912;52.336;17.172;2022-12-07T14:28:28;2.50;99.90
17587;DHT22;8912;52.336;17.172;2022-12-07T14:30:58;2.40;99.90
17587;DHT22;8912;52.336;17.172;2022-12-07T14:33:27;2.50;99.90
17587;DHT22;8912;52.336;17.172;2022-12-07T14:35:57;2.40;99.90
17587;DHT22;8912;52.336;17.172;2022-12-07T14:38:27;2.40;99.90
17587;DHT22;8912;52.336;17.172;2022-12-07T14:40:56;2.50;99.90
17587;DHT22;8912;52.336;17.172;2022-12-07T14:43:46;2.50;99.90
17587;DHT22;8912;52.336;17.172;2022-12-07T14:46:35;2.40;99.90
17587;DHT22;8912;52.336;17.172;2022-12-07T14:49:05;2.50;99.90
17587;DHT22;8912;52.336;17.172;2022-12-07T14:51:54;2.40;99.90
17587;DHT22;8912;52.336;17.172;2022-12-07T14:54:44;2.30;99.90
17587;DHT22;8912;52.336;17.172;2022-12-07T14:57:13;2.30;99.90
17587;DHT22;8912;52.336;17.172;2022-12-07T14:59:42;2.20;99.90
17587;DHT22;8912;52.336;17.172;2022-12-07T15:02:13;2.30;99.90
17587;DHT22;8912;52.336;17.172;2022-12-07T15:04:42;2.30;99.90
17587;DHT22;8912;52.336;17.172;2022-12-07T15:07:15;2.20;99.90
17587;DHT22;8912;52.336;17.172;2022-12-07T15:09:46;2.20;99.90
17587;DHT22;8912;52.336;17.172;2022-12-07T15:12:15;2.30;99.90
17587;DHT22;8912;52.336;17.172;2022-12-07T15:14:44;2.20;99.90
17587;DHT22;8912;52.336;17.172;2022-12-07T15:17:13;2.10;99.90
17587;DHT22;8912;52.336;17.172;2022-12-07T15:19:58;2.00;99.90
17587;DHT22;8912;52.336;17.172;2022-12-07T15:22:26;1.70;99.90
17587;DHT22;8912;52.336;17.172;2022-12-07T15:25:06;1.60;99.90
17587;DHT22;8912;52.336;17.172;2022-12-07T15:27:35;1.50;99.90
17587;DHT22;8912;52.336;17.172;2022-12-07T15:30:05;1.50;99.90
17587;DHT22;8912;52.336;17.172;2022-12-07T15:32:34;1.40;99.90
17587;DHT22;8912;52.336;17.172;2022-12-07T15:35:03;1.30;99.90
17587;DHT22;8912;52.336;17.172;2022-12-07T15:37:32;1.30;99.90
17587;DHT22;8912;52.336;17.172;2022-12-07T15:40:01;1.30;99.90
17587;DHT22;8912;52.336;17.172;2022-12-07T15:42:36;1.20;99.90
17587;DHT22;8912;52.336;17.172;2022-12-07T15:45:06;1.20;99.90
17587;DHT22;8912;52.336;17.172;2022-12-07T15:47:36;1.20;99.90
17587;DHT22;8912;52.336;17.172;2022-12-07T15:50:26;1.20;99.90
17587;DHT22;8912;52.336;17.172;2022-12-07T15:52:54;1.00;99.90
17587;DHT22;8912;52.336;17.172;2022-12-07T15:55:23;1.10;99.90
17587;DHT22;8912;52.336;17.172;2022-12-07T15:57:53;1.00;99.90
17587;DHT22;8912;52.336;17.172;2022-12-07T16:00:25;1.00;99.90
17587;DHT22;8912;52.336;17.172;2022-12-07T16:02:54;0.90;99.90
17587;DHT22;8912;52.336;17.172;2022-12-07T16:05:24;0.90;99.90
17587;DHT22;8912;52.336;17.172;2022-12-07T16:07:53;0.90;99.90
17587;DHT22;8912;52.336;17.172;2022-12-07T16:10:22;0.90;99.90
17587;DHT22;8912;52.336;17.172;2022-12-07T16:12:54;0.90;99.90
17587;DHT22;8912;52.336;17.172;2022-12-07T16:15:23;0.90;99.90
17587;DHT22;8912;52.336;17.172;2022-12-07T16:17:54;0.90;99.90
17587;DHT22;8912;52.336;17.172;2022-12-07T16:20:22;1.00;99.90
17587;DHT22;8912;52.336;17.172;2022-12-07T16:22:51;1.00;99.90
17587;DHT22;8912;52.336;17.172;2022-12-07T16:25:20;1.00;99.90
17587;DHT22;8912;52.336;17.172;2022-12-07T16:27:51;1.00;99.90
17587;DHT22;8912;52.336;17.172;2022-12-07T16:30:21;1.10;99.90
17587;DHT22;8912;52.336;17.172;2022-12-07T16:32:49;1.00;99.90
17587;DHT22;8912;52.336;17.172;2022-12-07T16:35:18;0.90;99.90
17587;DHT22;8912;52.336;17.172;2022-12-07T16:37:47;0.90;99.90
17587;DHT22;8912;52.336;17.172;2022-12-07T16:40:18;0.90;99.90
17587;DHT22;8912;52.336;17.172;2022-12-07T16:42:47;0.90;99.90